createdAt,value
2022-10-04T00:00:38.687Z,50.10
2022-10-04T00:03:30.731Z,49.53
2022-10-04T00:06:00.872Z,46.38
2022-10-04T00:09:06.225Z,46.92
2022-10-04T00:11:36.302Z,49.65
2022-10-04T00:14:24.290Z,46.72
2022-10-04T00:16:52.403Z,46.13
2022-10-04T00:19:20.053Z,45.45
2022-10-04T00:21:53.493Z,45.05
2022-10-04T00:24:23.055Z,44.90
2022-10-04T00:27:10.134Z,44.95
2022-10-04T00:29:40.351Z,45.55
2022-10-04T00:32:10.463Z,43.78
2022-10-04T00:34:53.771Z,46.17
2022-10-04T00:37:23.468Z,47.90
2022-10-04T00:40:35.247Z,43.33
2022-10-04T00:43:09.108Z,45.50
2022-10-04T00:45:44.441Z,44.47
2022-10-04T00:48:37.665Z,41.63
2022-10-04T00:51:11.988Z,41.75
2022-10-04T00:53:51.982Z,42.10
2022-10-04T00:56:32.660Z,40.30
2022-10-04T00:58:59.983Z,42.42
2022-10-04T01:01:29.167Z,38.95
2022-10-04T01:04:00.457Z,40.45
2022-10-04T01:06:28.603Z,40.55
2022-10-04T01:09:05.379Z,40.85
2022-10-04T01:11:40.174Z,40.03
2022-10-04T01:14:48.623Z,41.42
2022-10-04T01:17:16.068Z,40.28
2022-10-04T01:19:54.840Z,40.45
2022-10-04T01:22:35.927Z,40.65
2022-10-04T01:25:04.497Z,40.40
2022-10-04T01:27:45.209Z,39.92
2022-10-04T01:30:15.167Z,40.58
2022-10-04T01:32:45.246Z,40.00
2022-10-04T01:35:15.258Z,40.58
2022-10-04T01:37:42.787Z,40.85
2022-10-04T01:40:11.049Z,39.22
2022-10-04T01:42:46.141Z,40.05
2022-10-04T01:45:24.722Z,40.78
2022-10-04T01:48:05.863Z,39.67
2022-10-04T01:50:37.762Z,39.95
2022-10-04T01:53:22.489Z,40.78
2022-10-04T01:56:16.644Z,39.78
2022-10-04T01:58:49.797Z,40.70
2022-10-04T02:01:30.674Z,41.65
2022-10-04T02:04:06.300Z,40.75
2022-10-04T02:06:43.091Z,40.25
2022-10-04T02:09:18.903Z,39.83
2022-10-04T02:11:52.646Z,39.28
2022-10-04T02:14:27.137Z,39.83
2022-10-04T02:16:54.605Z,41.28
2022-10-04T02:19:25.486Z,40.10
2022-10-04T02:21:54.188Z,40.00
2022-10-04T02:24:22.067Z,38.95
2022-10-04T02:26:53.587Z,39.75
2022-10-04T02:32:10.052Z,39.33
2022-10-04T02:34:37.995Z,42.47
2022-10-04T02:37:07.654Z,40.95
2022-10-04T02:39:44.816Z,41.80
2022-10-04T02:42:21.684Z,40.67
2022-10-04T02:44:57.573Z,40.63
2022-10-04T02:47:37.999Z,39.55
2022-10-04T02:50:18.432Z,40.80
2022-10-04T02:52:52.133Z,39.67
2022-10-04T02:55:31.222Z,39.35
2022-10-04T02:57:59.774Z,38.88
2022-10-04T03:00:32.352Z,39.95
2022-10-04T03:03:30.221Z,39.50
2022-10-04T03:06:14.283Z,40.92
2022-10-04T03:08:50.323Z,39.08
2022-10-04T03:11:22.708Z,38.47
2022-10-04T03:13:52.916Z,39.63
2022-10-04T03:16:21.422Z,40.60
2022-10-04T03:18:51.680Z,40.00
2022-10-04T03:21:21.841Z,39.08
2022-10-04T03:23:52.250Z,41.00
2022-10-04T03:26:38.034Z,38.80
2022-10-04T03:29:10.363Z,40.90
2022-10-04T03:31:45.760Z,42.25
2022-10-04T03:34:16.377Z,40.60
2022-10-04T03:36:46.726Z,42.70
2022-10-04T03:39:28.073Z,41.15
2022-10-04T03:41:57.890Z,42.25
2022-10-04T03:44:25.820Z,40.92
2022-10-04T03:46:53.096Z,42.58
2022-10-04T03:49:35.275Z,41.83
2022-10-04T03:52:04.331Z,41.05
2022-10-04T03:54:33.967Z,42.75
2022-10-04T03:57:02.169Z,42.78
2022-10-04T03:59:29.949Z,43.20
2022-10-04T04:02:16.293Z,41.92
2022-10-04T04:05:02.707Z,40.28
2022-10-04T04:07:46.012Z,39.25
2022-10-04T04:10:18.709Z,41.97
2022-10-04T04:13:11.916Z,39.78
2022-10-04T04:15:45.433Z,39.55
2022-10-04T04:18:22.964Z,41.13
2022-10-04T04:20:53.489Z,40.25
2022-10-04T04:23:32.903Z,37.70
2022-10-04T04:26:31.654Z,39.13
2022-10-04T04:29:27.364Z,36.97
2022-10-04T04:31:55.057Z,40.65
2022-10-04T04:34:25.559Z,37.75
2022-10-04T04:36:59.150Z,39.67
2022-10-04T04:39:34.695Z,39.45
2022-10-04T04:42:19.132Z,39.80
2022-10-04T04:45:00.202Z,38.97
2022-10-04T04:47:44.127Z,41.03
2022-10-04T04:50:16.848Z,40.88
2022-10-04T04:52:54.918Z,40.20
2022-10-04T04:55:25.855Z,41.08
2022-10-04T04:57:56.527Z,41.88
2022-10-04T05:00:30.224Z,42.30
2022-10-04T05:03:00.487Z,43.08
2022-10-04T05:05:32.953Z,41.90
2022-10-04T05:08:13.518Z,39.75
2022-10-04T05:11:06.020Z,40.15
2022-10-04T05:13:47.383Z,40.33
2022-10-04T05:16:31.158Z,40.42
2022-10-04T05:19:22.813Z,40.72
2022-10-04T05:21:52.935Z,40.80
2022-10-04T05:24:26.177Z,39.00
2022-10-04T05:26:57.642Z,39.05
2022-10-04T05:29:29.423Z,39.92
2022-10-04T05:32:53.848Z,39.85
2022-10-04T05:35:23.456Z,38.17
2022-10-04T05:38:03.324Z,38.80
2022-10-04T05:40:44.919Z,38.60
2022-10-04T05:43:31.265Z,39.42
2022-10-04T05:46:10.602Z,38.70
2022-10-04T05:48:41.698Z,39.55
2022-10-04T05:51:25.230Z,39.42
2022-10-04T05:53:54.425Z,37.40
2022-10-04T05:56:31.016Z,37.63
2022-10-04T05:59:20.324Z,38.55
2022-10-04T06:02:12.211Z,37.15
2022-10-04T06:07:22.345Z,38.25
2022-10-04T06:10:09.228Z,39.40
2022-10-04T06:13:04.131Z,39.30
2022-10-04T06:15:41.343Z,40.38
2022-10-04T06:18:27.236Z,39.75
2022-10-04T06:21:19.428Z,39.97
2022-10-04T06:23:59.455Z,38.40
2022-10-04T06:26:43.696Z,39.90
2022-10-04T06:29:17.452Z,39.63
2022-10-04T06:32:15.840Z,39.13
2022-10-04T06:34:48.937Z,38.53
2022-10-04T06:37:53.367Z,37.65
2022-10-04T06:40:27.444Z,37.15
2022-10-04T06:43:01.740Z,35.95
2022-10-04T06:46:10.317Z,38.00
2022-10-04T06:48:44.155Z,34.33
2022-10-04T06:51:33.072Z,37.55
2022-10-04T06:54:13.039Z,38.78
2022-10-04T06:57:32.002Z,39.38
2022-10-04T07:00:19.460Z,39.50
2022-10-04T07:03:03.073Z,38.90
2022-10-04T07:05:48.507Z,41.67
2022-10-04T07:08:34.086Z,38.90
2022-10-04T07:11:12.819Z,38.90
2022-10-04T07:13:47.082Z,40.58
2022-10-04T07:16:17.601Z,39.70
2022-10-04T07:19:09.689Z,39.72
2022-10-04T07:21:45.382Z,39.47
2022-10-04T07:24:24.827Z,38.55
2022-10-04T07:26:55.316Z,39.40
2022-10-04T07:29:28.469Z,40.30
2022-10-04T07:32:05.898Z,41.22
2022-10-04T07:34:50.777Z,39.67
2022-10-04T07:37:19.552Z,41.05
2022-10-04T07:40:09.708Z,42.92
2022-10-04T07:42:46.665Z,43.42
2022-10-04T07:45:29.736Z,43.72
2022-10-04T07:48:16.300Z,43.35
2022-10-04T07:51:00.223Z,43.85
2022-10-04T07:53:47.813Z,43.60
2022-10-04T07:56:37.323Z,43.85
2022-10-04T07:59:13.759Z,43.28
2022-10-04T08:02:01.824Z,42.30
2022-10-04T08:04:47.211Z,41.22
2022-10-04T08:07:21.729Z,41.05
2022-10-04T08:10:14.082Z,39.92
2022-10-04T08:13:00.952Z,40.05
2022-10-04T08:15:40.047Z,37.17
2022-10-04T08:18:49.175Z,36.47
2022-10-04T08:21:32.825Z,36.38
2022-10-04T08:24:09.484Z,38.90
2022-10-04T08:26:58.308Z,38.28
2022-10-04T08:29:47.730Z,37.92
2022-10-04T08:32:30.673Z,35.50
2022-10-04T08:35:11.607Z,34.88
2022-10-04T08:38:06.936Z,36.88
2022-10-04T08:41:01.931Z,33.17
2022-10-04T08:43:49.493Z,31.98
2022-10-04T08:46:35.623Z,29.50
2022-10-04T08:49:42.952Z,29.38
2022-10-04T08:52:10.283Z,29.48
2022-10-04T08:54:57.164Z,28.33
2022-10-04T08:57:33.502Z,26.60
2022-10-04T09:00:21.245Z,27.70
2022-10-04T09:02:55.021Z,26.33
2022-10-04T09:05:37.993Z,28.50
2022-10-04T09:08:17.174Z,27.85
2022-10-04T09:10:59.689Z,26.58
2022-10-04T09:13:38.293Z,27.13
2022-10-04T09:16:35.765Z,26.83
2022-10-04T09:19:22.962Z,27.63
2022-10-04T09:22:13.459Z,29.90
2022-10-04T09:25:09.171Z,29.52
2022-10-04T09:27:58.694Z,29.38
2022-10-04T09:31:00.781Z,31.33
2022-10-04T09:36:21.116Z,35.92
2022-10-04T09:39:05.862Z,36.65
2022-10-04T09:42:00.208Z,40.22
2022-10-04T09:45:21.464Z,37.78
2022-10-04T09:48:32.824Z,32.07
2022-10-04T09:51:13.144Z,27.42
2022-10-04T09:53:52.988Z,24.17
2022-10-04T09:56:26.914Z,28.73
2022-10-04T09:59:13.644Z,29.33
2022-10-04T10:02:17.949Z,28.20
2022-10-04T10:05:13.004Z,28.50
2022-10-04T10:07:54.586Z,29.33
2022-10-04T10:11:17.496Z,29.05
2022-10-04T10:14:18.396Z,28.95
2022-10-04T10:17:16.092Z,26.98
2022-10-04T10:19:52.579Z,29.02
2022-10-04T10:22:31.217Z,27.38
2022-10-04T10:25:17.966Z,35.03
2022-10-04T10:28:03.591Z,32.85
2022-10-04T10:31:10.775Z,37.63
2022-10-04T10:34:05.401Z,31.48
2022-10-04T10:36:51.299Z,33.60
2022-10-04T10:39:53.732Z,31.85
2022-10-04T10:42:48.252Z,34.47
2022-10-04T10:45:40.896Z,32.00
2022-10-04T10:48:35.457Z,31.45
2022-10-04T10:51:42.391Z,27.80
2022-10-04T10:54:47.346Z,30.30
2022-10-04T10:57:43.452Z,28.98
2022-10-04T11:00:14.399Z,25.42
2022-10-04T11:03:12.733Z,28.13
2022-10-04T11:06:00.170Z,29.85
2022-10-04T11:09:02.694Z,30.10
2022-10-04T11:11:56.128Z,29.85
2022-10-04T11:14:43.107Z,29.15
2022-10-04T11:17:13.396Z,29.10
2022-10-04T11:20:02.878Z,30.05
2022-10-04T11:22:55.408Z,30.20
2022-10-04T11:25:35.965Z,30.65
2022-10-04T11:28:21.975Z,29.90
2022-10-04T11:30:58.910Z,28.02
2022-10-04T11:33:44.750Z,29.35
2022-10-04T11:36:18.531Z,29.50
2022-10-04T11:38:51.273Z,29.13
2022-10-04T11:41:31.083Z,30.67
2022-10-04T11:44:20.388Z,32.58
2022-10-04T11:46:53.081Z,31.13
2022-10-04T11:49:50.522Z,31.63
2022-10-04T11:52:40.481Z,31.58
2022-10-04T11:55:36.033Z,28.75
2022-10-04T11:58:27.660Z,31.88
2022-10-04T12:01:36.007Z,32.13
2022-10-04T12:04:41.063Z,30.77
2022-10-04T12:07:26.741Z,28.35
2022-10-04T12:10:02.221Z,31.10
2022-10-04T12:12:50.094Z,31.25
2022-10-04T12:15:23.599Z,30.35
2022-10-04T12:17:52.550Z,30.42
2022-10-04T12:20:48.621Z,28.92
2022-10-04T12:23:38.196Z,28.27
2022-10-04T12:26:33.042Z,30.50
2022-10-04T12:29:18.621Z,29.45
2022-10-04T12:32:00.708Z,30.42
2022-10-04T12:34:38.015Z,29.83
2022-10-04T12:37:21.056Z,30.67
2022-10-04T12:40:29.454Z,28.23
2022-10-04T12:43:15.215Z,28.42
2022-10-04T12:46:07.187Z,27.00
2022-10-04T12:48:51.785Z,26.33
2022-10-04T12:51:43.967Z,27.13
2022-10-04T12:54:27.402Z,27.83
2022-10-04T12:57:31.288Z,26.60
2022-10-04T13:00:16.061Z,27.90
2022-10-04T13:03:02.665Z,29.15
2022-10-04T13:05:46.133Z,29.25
2022-10-04T13:08:26.913Z,28.95
2022-10-04T13:11:18.783Z,27.73
2022-10-04T13:14:22.929Z,26.48
2022-10-04T13:20:29.200Z,30.13
2022-10-04T13:22:59.098Z,30.58
2022-10-04T13:25:54.783Z,26.88
2022-10-04T13:28:32.208Z,29.08
2022-10-04T13:31:23.923Z,29.08
2022-10-04T13:33:58.169Z,27.42
2022-10-04T13:36:37.809Z,25.58
2022-10-04T13:39:14.835Z,25.15
2022-10-04T13:41:42.552Z,25.52
2022-10-04T13:44:26.164Z,24.80
2022-10-04T13:47:17.604Z,22.70
2022-10-04T13:53:08.077Z,25.20
2022-10-04T13:56:12.554Z,23.67
2022-10-04T13:59:02.114Z,22.17
2022-10-04T14:01:48.742Z,18.63
2022-10-04T14:04:34.949Z,23.40
2022-10-04T14:07:39.717Z,18.52
2022-10-04T14:10:25.748Z,20.60
2022-10-04T14:13:30.484Z,21.70
2022-10-04T14:16:35.719Z,21.20
2022-10-04T14:19:18.024Z,16.65
2022-10-04T14:22:24.494Z,18.63
2022-10-04T14:25:30.984Z,15.90
2022-10-04T14:28:38.298Z,19.88
2022-10-04T14:31:20.137Z,22.38
2022-10-04T14:34:10.661Z,21.20
2022-10-04T14:36:48.112Z,20.60
2022-10-04T14:39:44.954Z,20.90
2022-10-04T14:42:23.878Z,20.40
2022-10-04T14:45:01.105Z,22.00
2022-10-04T14:47:42.736Z,20.38
2022-10-04T14:50:28.732Z,20.73
2022-10-04T14:53:04.862Z,19.25
2022-10-04T14:56:16.607Z,21.80
2022-10-04T14:59:17.755Z,19.42
2022-10-04T15:02:19.368Z,18.08
2022-10-04T15:04:52.608Z,17.70
2022-10-04T15:07:32.473Z,17.90
2022-10-04T15:09:59.742Z,16.90
2022-10-04T15:13:16.320Z,16.70
2022-10-04T15:15:50.886Z,17.52
2022-10-04T15:18:39.944Z,15.13
2022-10-04T15:21:33.840Z,14.70
2022-10-04T15:24:27.497Z,16.55
2022-10-04T15:27:08.744Z,16.00
2022-10-04T15:29:57.980Z,15.63
2022-10-04T15:32:48.488Z,14.80
2022-10-04T15:35:16.235Z,16.77
2022-10-04T15:38:04.736Z,15.93
2022-10-04T15:40:48.116Z,16.77
2022-10-04T15:43:43.432Z,16.52
2022-10-04T15:46:31.498Z,13.90
2022-10-04T15:49:16.179Z,15.48
2022-10-04T15:52:25.719Z,15.20
2022-10-04T15:55:17.075Z,15.70
2022-10-04T15:57:46.305Z,15.25
2022-10-04T16:00:29.027Z,17.88
2022-10-04T16:03:03.929Z,17.40
2022-10-04T16:05:39.418Z,18.17
2022-10-04T16:08:41.728Z,17.60
2022-10-04T16:11:35.561Z,17.85
2022-10-04T16:14:20.355Z,17.83
2022-10-04T16:17:10.000Z,15.50
2022-10-04T16:20:12.908Z,18.65
2022-10-04T16:22:42.223Z,16.17
2022-10-04T16:25:25.038Z,17.95
2022-10-04T16:28:19.556Z,20.48
2022-10-04T16:31:11.114Z,20.50
2022-10-04T16:33:51.393Z,18.65
2022-10-04T16:36:25.168Z,21.55
2022-10-04T16:39:15.347Z,20.98
2022-10-04T16:41:53.805Z,21.30
2022-10-04T16:44:54.732Z,21.17
2022-10-04T16:47:31.530Z,20.92
2022-10-04T16:50:01.608Z,21.15
2022-10-04T16:52:49.444Z,20.90
2022-10-04T16:55:44.335Z,21.80
2022-10-04T16:58:27.233Z,20.95
2022-10-04T17:01:23.503Z,20.60
2022-10-04T17:04:26.174Z,21.75
2022-10-04T17:07:18.488Z,21.77
2022-10-04T17:10:03.301Z,22.13
2022-10-04T17:12:46.909Z,22.00
2022-10-04T17:15:17.197Z,23.20
2022-10-04T17:18:10.556Z,23.17
2022-10-04T17:20:40.875Z,22.67
2022-10-04T17:23:29.049Z,23.42
2022-10-04T17:26:15.076Z,22.60
2022-10-04T17:28:45.613Z,23.83
2022-10-04T17:31:18.813Z,23.83
2022-10-04T17:34:10.588Z,25.00
2022-10-04T17:36:43.836Z,27.47
2022-10-04T17:39:33.928Z,26.73
2022-10-04T17:42:18.969Z,26.15
2022-10-04T17:45:04.641Z,28.85
2022-10-04T17:48:04.056Z,26.92
2022-10-04T17:51:07.123Z,25.02
2022-10-04T17:53:59.300Z,27.08
2022-10-04T17:56:39.041Z,26.48
2022-10-04T17:59:13.014Z,26.95
2022-10-04T18:01:54.847Z,25.90
2022-10-04T18:04:30.489Z,27.38
2022-10-04T18:07:03.816Z,26.05
2022-10-04T18:09:42.974Z,26.50
2022-10-04T18:12:27.796Z,24.88
2022-10-04T18:15:07.356Z,26.77
2022-10-04T18:17:49.139Z,26.88
2022-10-04T18:20:44.912Z,27.05
2022-10-04T18:23:20.948Z,25.55
2022-10-04T18:25:49.098Z,25.35
2022-10-04T18:28:22.871Z,26.55
2022-10-04T18:30:54.794Z,31.65
2022-10-04T18:33:48.450Z,32.70
2022-10-04T18:36:32.985Z,32.78
2022-10-04T18:39:12.983Z,31.23
2022-10-04T18:41:58.023Z,31.42
2022-10-04T18:44:44.285Z,31.80
2022-10-04T18:47:21.181Z,31.80
2022-10-04T18:49:54.472Z,30.55
2022-10-04T18:52:44.310Z,30.27
2022-10-04T18:55:28.347Z,29.83
2022-10-04T18:58:50.458Z,29.75
2022-10-04T19:01:45.807Z,30.80
2022-10-04T19:04:31.397Z,29.65
2022-10-04T19:10:02.210Z,30.52
2022-10-04T19:12:44.834Z,31.13
2022-10-04T19:15:37.461Z,30.80
2022-10-04T19:18:40.248Z,31.25
2022-10-04T19:21:35.243Z,30.42
2022-10-04T19:24:38.256Z,28.92
2022-10-04T19:27:17.108Z,30.60
2022-10-04T19:29:54.457Z,30.55
2022-10-04T19:32:28.632Z,30.38
2022-10-04T19:35:09.130Z,29.85
2022-10-04T19:37:52.628Z,29.08
2022-10-04T19:40:29.301Z,28.88
2022-10-04T19:43:08.181Z,28.55
2022-10-04T19:46:06.823Z,29.67
2022-10-04T19:48:43.731Z,28.58
2022-10-04T19:51:19.801Z,30.27
2022-10-04T19:53:53.063Z,28.10
2022-10-04T19:56:25.709Z,28.92
2022-10-04T19:59:33.118Z,29.27
2022-10-04T20:02:02.045Z,28.05
2022-10-04T20:04:35.315Z,29.67
2022-10-04T20:07:06.449Z,30.60
2022-10-04T20:09:37.999Z,30.02
2022-10-04T20:12:32.966Z,29.92
2022-10-04T20:15:14.897Z,31.70
2022-10-04T20:17:46.028Z,30.75
2022-10-04T20:20:16.602Z,31.33
2022-10-04T20:22:57.931Z,29.98
2022-10-04T20:25:49.365Z,27.83
2022-10-04T20:28:26.371Z,29.95
2022-10-04T20:30:59.898Z,30.90
2022-10-04T20:33:33.520Z,29.80
2022-10-04T20:36:06.151Z,30.23
2022-10-04T20:38:59.665Z,30.23
2022-10-04T20:41:49.831Z,30.38
2022-10-04T20:44:55.989Z,31.97
2022-10-04T20:47:29.951Z,32.90
2022-10-04T20:50:01.721Z,30.17
2022-10-04T20:52:32.997Z,30.77
2022-10-04T20:55:06.495Z,33.10
2022-10-04T20:57:40.999Z,34.42
2022-10-04T21:00:23.340Z,33.38
2022-10-04T21:03:08.234Z,34.38
2022-10-04T21:05:38.791Z,34.63
2022-10-04T21:08:34.931Z,35.47
2022-10-04T21:11:10.051Z,36.20
2022-10-04T21:13:44.080Z,35.88
2022-10-04T21:16:11.696Z,34.85
2022-10-04T21:18:39.102Z,35.13
2022-10-04T21:21:08.109Z,36.67
2022-10-04T21:23:36.057Z,36.05
2022-10-04T21:26:24.181Z,34.72
2022-10-04T21:28:57.225Z,36.45
2022-10-04T21:31:26.161Z,34.15
2022-10-04T21:33:54.096Z,34.95
2022-10-04T21:36:22.797Z,34.75
2022-10-04T21:38:54.198Z,34.58
2022-10-04T21:41:23.924Z,35.55
2022-10-04T21:43:52.497Z,36.58
2022-10-04T21:46:21.103Z,35.70
2022-10-04T21:48:49.106Z,35.63
2022-10-04T21:51:17.216Z,35.40
2022-10-04T21:53:44.666Z,37.15
2022-10-04T21:56:12.942Z,36.15
2022-10-04T21:58:41.004Z,34.28
2022-10-04T22:01:08.420Z,35.15
2022-10-04T22:03:39.933Z,36.28
2022-10-04T22:06:07.800Z,36.05
